Atmore, Alabama
Current Conditions -  °F | °C
As of 1:56 PM on Wednesday 28 Jan 2015 (Local Time) from KNSE Reporting Station
Smoke Smoke  
Wind Chill: 17°   Ceiling: Unl
Heat Index: 17°   Visibility: 4mi
Dew Point: -3°   Wind: 9mph
Humidity: 25%   Direction: 350°N
Pressure: 30.23"   Gusts: NA
Location:  31.03°N, 87.49°W
Report Text: KNSE 281956Z COR 35008KT 4SM FU SCT010 17/M03 A3023 RMK AO2 SLP223 FU SCT010 FU W-N-NE T01671033 $
Loading
Personal Weather Stations






























Interactive Weather Map New forecast layout! Learn more

10-Day Weather Forecast

Advertisements
Track Severe Weather on mobile